Time;durP1;ratioP1;P1;durP2;ratioP2;P2;SDS_P1;SDS_P2;PMS_P1;PMS_P2;Temp;Humidity;BMP_temperature;BMP_pressure;BME280_temperature;BME280_humidity;BME280_pressure;Samples;Min_cycle;Max_cycle;Signal;HPM_P1;HPM_P2
2022/07/19 00:01:38;;;;;;;;;;;24.60;65.80;;;;;;5026324;28;19940;-81
2022/07/19 00:04:06;;;;;;;;;;;24.60;66.20;;;;;;5007674;28;19940;-82
2022/07/19 00:06:37;;;;;;;;;;;24.50;66.30;;;;;;5020541;28;19929;-83
2022/07/19 00:09:06;;;;;;;;;;;24.50;66.60;;;;;;4995571;28;19933;-82
2022/07/19 00:11:34;;;;;;;;;;;24.40;66.30;;;;;;5007765;28;19929;-82
2022/07/19 00:14:02;;;;;;;;;;;24.30;66.80;;;;;;5022153;28;19929;-82
2022/07/19 00:16:30;;;;;;;;;;;24.30;68.00;;;;;;5022761;28;19936;-83
2022/07/19 00:18:59;;;;;;;;;;;24.20;67.30;;;;;;5008252;28;19930;-82
2022/07/19 00:21:27;;;;;;;;;;;24.10;66.90;;;;;;5011245;28;20399;-82
2022/07/19 00:23:55;;;;;;;;;;;24.10;67.40;;;;;;5006358;28;19922;-82
2022/07/19 00:26:23;;;;;;;;;;;24.00;67.30;;;;;;5004043;28;19926;-81
2022/07/19 00:28:52;;;;;;;;;;;24.00;67.70;;;;;;4988782;28;19932;-83
2022/07/19 00:31:21;;;;;;;;;;;22.90;66.90;;;;;;4988625;28;19932;-85
2022/07/19 00:33:49;;;;;;;;;;;23.90;67.20;;;;;;5023884;28;19926;-83
2022/07/19 00:36:17;;;;;;;;;;;23.90;67.30;;;;;;5006880;28;19932;-83
2022/07/19 00:38:45;;;;;;;;;;;23.90;67.40;;;;;;5006113;28;19960;-82
2022/07/19 00:41:13;;;;;;;;;;;23.70;67.80;;;;;;5007975;28;19936;-82
2022/07/19 00:43:42;;;;;;;;;;;23.70;67.20;;;;;;5010588;28;19936;-81
2022/07/19 00:46:16;;;;;;;;;;;23.50;67.00;;;;;;4992341;28;19925;-81
2022/07/19 00:48:45;;;;;;;;;;;24.50;67.50;;;;;;4983986;28;19940;-81
2022/07/19 00:51:15;;;;;;;;;;;23.80;67.50;;;;;;5001999;28;19926;-81
2022/07/19 00:53:45;;;;;;;;;;;23.80;67.90;;;;;;5009672;28;19926;-81
2022/07/19 00:56:14;;;;;;;;;;;23.70;67.40;;;;;;5006607;28;19926;-81
2022/07/19 00:58:42;;;;;;;;;;;23.70;68.20;;;;;;5007220;28;19930;-81
2022/07/19 01:01:10;;;;;;;;;;;23.60;68.00;;;;;;5009492;28;19936;-82
2022/07/19 01:03:40;;;;;;;;;;;23.60;68.70;;;;;;5022597;28;19926;-81
2022/07/19 01:06:09;;;;;;;;;;;23.50;68.90;;;;;;5006032;28;19926;-81
2022/07/19 01:08:37;;;;;;;;;;;23.40;69.00;;;;;;5008475;28;19936;-82
2022/07/19 01:11:07;;;;;;;;;;;23.30;69.00;;;;;;5010920;28;19926;-82
2022/07/19 01:13:35;;;;;;;;;;;23.20;69.20;;;;;;5011552;28;19922;-81
2022/07/19 01:16:03;;;;;;;;;;;23.20;69.10;;;;;;5008841;28;19925;-83
2022/07/19 01:18:33;;;;;;;;;;;23.00;69.90;;;;;;5010210;28;19913;-81
2022/07/19 01:21:03;;;;;;;;;;;23.00;69.20;;;;;;5008798;28;20461;-82
2022/07/19 01:23:32;;;;;;;;;;;23.00;70.00;;;;;;4991257;28;20272;-81
2022/07/19 01:26:02;;;;;;;;;;;22.90;69.80;;;;;;4990586;28;19936;-81
2022/07/19 01:28:30;;;;;;;;;;;22.80;69.80;;;;;;5007478;28;19926;-81
2022/07/19 01:30:58;;;;;;;;;;;22.50;70.40;;;;;;4997622;28;19930;-82
2022/07/19 01:33:27;;;;;;;;;;;22.80;69.70;;;;;;5011550;28;19944;-81
2022/07/19 01:35:56;;;;;;;;;;;22.70;70.00;;;;;;5027365;28;19936;-79
2022/07/19 01:38:24;;;;;;;;;;;22.70;70.40;;;;;;5023579;28;19926;-81
2022/07/19 01:40:52;;;;;;;;;;;22.60;70.60;;;;;;5007051;28;19929;-82
2022/07/19 01:43:20;;;;;;;;;;;22.60;70.80;;;;;;5023063;28;20044;-82
2022/07/19 01:45:48;;;;;;;;;;;22.50;71.20;;;;;;5006506;28;19945;-81
2022/07/19 01:48:19;;;;;;;;;;;22.40;71.30;;;;;;4974889;28;20331;-80
2022/07/19 01:50:47;;;;;;;;;;;22.40;71.50;;;;;;4990481;28;19936;-81
2022/07/19 01:53:15;;;;;;;;;;;22.30;71.60;;;;;;4684302;28;10000428;-81
2022/07/19 01:55:46;;;;;;;;;;;22.30;71.00;;;;;;4991073;28;19926;-81
2022/07/19 01:58:14;;;;;;;;;;;22.30;71.20;;;;;;4998885;28;19926;-81
2022/07/19 02:00:42;;;;;;;;;;;22.20;72.20;;;;;;5007229;28;19929;-82
2022/07/19 02:03:10;;;;;;;;;;;22.20;71.70;;;;;;4983188;28;20027;-81
2022/07/19 02:05:38;;;;;;;;;;;22.20;71.80;;;;;;4994003;28;19929;-82
2022/07/19 02:08:07;;;;;;;;;;;22.20;72.00;;;;;;5008673;28;19926;-81
2022/07/19 02:10:37;;;;;;;;;;;22.10;72.40;;;;;;5024012;28;19934;-81
2022/07/19 02:13:05;;;;;;;;;;;22.10;72.60;;;;;;5023273;28;19929;-81
2022/07/19 02:15:34;;;;;;;;;;;22.00;73.20;;;;;;5002698;28;20352;-81
2022/07/19 02:18:03;;;;;;;;;;;22.00;72.90;;;;;;5009589;28;19933;-82
2022/07/19 02:20:31;;;;;;;;;;;21.90;73.90;;;;;;5023951;28;19926;-81
2022/07/19 02:22:59;;;;;;;;;;;21.80;73.20;;;;;;5021157;28;20482;-80
2022/07/19 02:25:29;;;;;;;;;;;21.80;74.00;;;;;;5024268;28;19936;-81
2022/07/19 02:28:00;;;;;;;;;;;21.80;73.20;;;;;;5008935;28;20048;-81
2022/07/19 02:30:28;;;;;;;;;;;22.10;73.20;;;;;;4992125;28;19930;-80
2022/07/19 02:32:56;;;;;;;;;;;21.70;74.00;;;;;;5023419;28;19926;-81
2022/07/19 02:35:26;;;;;;;;;;;21.70;73.80;;;;;;5024158;28;19940;-80
2022/07/19 02:37:54;;;;;;;;;;;21.70;73.70;;;;;;5025399;28;20470;-81
2022/07/19 02:40:23;;;;;;;;;;;21.70;73.50;;;;;;4992731;28;19930;-81
2022/07/19 02:42:52;;;;;;;;;;;21.70;73.30;;;;;;5009354;28;19936;-81
2022/07/19 02:45:22;;;;;;;;;;;21.70;74.40;;;;;;4993373;28;19926;-81
2022/07/19 02:47:51;;;;;;;;;;;21.60;73.40;;;;;;5008647;28;19940;-81
2022/07/19 02:50:19;;;;;;;;;;;21.60;74.00;;;;;;5023298;28;19930;-81
2022/07/19 02:52:47;;;;;;;;;;;21.50;74.40;;;;;;5008890;28;19929;-81
2022/07/19 02:55:15;;;;;;;;;;;21.50;74.10;;;;;;5012608;28;19931;-81
2022/07/19 02:57:44;;;;;;;;;;;21.40;74.90;;;;;;5033419;28;19933;-81
2022/07/19 03:00:13;;;;;;;;;;;21.40;75.10;;;;;;5006079;28;19936;-81
2022/07/19 03:02:41;;;;;;;;;;;21.40;74.60;;;;;;5007820;28;19930;-80
2022/07/19 03:05:10;;;;;;;;;;;21.40;74.60;;;;;;4989430;28;19936;-82
2022/07/19 03:07:38;;;;;;;;;;;21.40;74.10;;;;;;5006092;28;19952;-81
2022/07/19 03:10:06;;;;;;;;;;;21.40;74.60;;;;;;5003877;28;19932;-81
2022/07/19 03:12:35;;;;;;;;;;;21.30;74.50;;;;;;5007208;28;19948;-81
2022/07/19 03:15:04;;;;;;;;;;;21.30;74.50;;;;;;4993556;28;19945;-81
2022/07/19 03:17:32;;;;;;;;;;;21.30;74.50;;;;;;5000720;28;19929;-80
2022/07/19 03:20:01;;;;;;;;;;;21.30;74.20;;;;;;5013349;28;19931;-81
2022/07/19 03:22:29;;;;;;;;;;;21.30;74.30;;;;;;5009880;28;19934;-81
2022/07/19 03:24:57;;;;;;;;;;;21.30;74.50;;;;;;4994490;28;19926;-82
2022/07/19 03:27:24;;;;;;;;;;;21.30;76.20;;;;;;5009800;28;20005;-80
2022/07/19 03:29:52;;;;;;;;;;;21.30;76.20;;;;;;4993175;28;19933;-80
2022/07/19 03:32:21;;;;;;;;;;;21.20;76.90;;;;;;5037825;28;19933;-80
2022/07/19 03:34:49;;;;;;;;;;;21.20;76.10;;;;;;5020291;28;19933;-81
2022/07/19 03:37:17;;;;;;;;;;;21.10;75.60;;;;;;4992468;28;19926;-82
2022/07/19 03:39:47;;;;;;;;;;;21.10;76.20;;;;;;5009699;28;19932;-80
2022/07/19 03:42:17;;;;;;;;;;;21.10;76.40;;;;;;5033973;28;19926;-81
2022/07/19 03:44:47;;;;;;;;;;;20.80;76.40;;;;;;5010635;28;20006;-81
2022/07/19 03:47:16;;;;;;;;;;;21.10;76.40;;;;;;5027087;28;19936;-81
2022/07/19 03:49:44;;;;;;;;;;;21.10;76.60;;;;;;4982060;28;19932;-80
2022/07/19 03:52:14;;;;;;;;;;;21.00;76.70;;;;;;5008911;28;19925;-81
2022/07/19 03:54:46;;;;;;;;;;;21.00;76.40;;;;;;5010220;28;19925;-82
2022/07/19 03:57:14;;;;;;;;;;;21.10;77.70;;;;;;5010834;28;19925;-80
2022/07/19 03:59:42;;;;;;;;;;;21.10;77.30;;;;;;5010106;28;19926;-81
2022/07/19 04:02:10;;;;;;;;;;;21.00;76.80;;;;;;5011952;28;19929;-80
2022/07/19 04:04:39;;;;;;;;;;;21.00;77.90;;;;;;5016872;28;19926;-80
2022/07/19 04:07:11;;;;;;;;;;;21.00;77.20;;;;;;5031467;28;19936;-81
2022/07/19 04:09:40;;;;;;;;;;;21.00;76.90;;;;;;5011843;28;19926;-82
2022/07/19 04:12:09;;;;;;;;;;;21.00;77.50;;;;;;5012500;28;19926;-80
2022/07/19 04:14:37;;;;;;;;;;;20.90;77.80;;;;;;5009730;28;19929;-80
2022/07/19 04:17:05;;;;;;;;;;;20.90;77.70;;;;;;4993783;28;19936;-81
2022/07/19 04:19:35;;;;;;;;;;;20.90;78.00;;;;;;5026183;28;19930;-81
2022/07/19 04:22:03;;;;;;;;;;;20.90;78.00;;;;;;5010879;28;19932;-81
2022/07/19 04:24:31;;;;;;;;;;;20.90;78.40;;;;;;5008021;28;20366;-82
2022/07/19 04:26:59;;;;;;;;;;;20.90;77.80;;;;;;5009639;28;19930;-81
2022/07/19 04:29:28;;;;;;;;;;;20.90;78.00;;;;;;5009642;28;19926;-81
2022/07/19 04:31:57;;;;;;;;;;;20.90;78.00;;;;;;5024687;28;20013;-81
2022/07/19 04:34:24;;;;;;;;;;;20.90;78.10;;;;;;4994161;28;19946;-81
2022/07/19 04:36:54;;;;;;;;;;;20.90;78.50;;;;;;5036589;28;19926;-80
2022/07/19 04:39:22;;;;;;;;;;;20.90;78.20;;;;;;5018635;28;19925;-80
2022/07/19 04:41:50;;;;;;;;;;;20.90;78.30;;;;;;5025583;28;19929;-80
2022/07/19 04:44:18;;;;;;;;;;;21.00;78.90;;;;;;5025105;28;20395;-80
2022/07/19 04:46:45;;;;;;;;;;;21.00;78.60;;;;;;5018510;28;19929;-80
2022/07/19 04:49:14;;;;;;;;;;;20.90;78.90;;;;;;5008636;28;19938;-81
2022/07/19 04:51:42;;;;;;;;;;;21.10;78.50;;;;;;5020388;28;19926;-81
2022/07/19 04:54:12;;;;;;;;;;;21.10;78.50;;;;;;5003694;28;19929;-81
2022/07/19 04:56:40;;;;;;;;;;;21.20;78.60;;;;;;4991140;28;19926;-81
2022/07/19 04:59:08;;;;;;;;;;;21.20;79.20;;;;;;5014690;28;19925;-80
2022/07/19 05:01:38;;;;;;;;;;;21.20;79.50;;;;;;5009740;28;19940;-81
2022/07/19 05:04:06;;;;;;;;;;;21.30;78.30;;;;;;5006214;28;19926;-81
2022/07/19 05:06:34;;;;;;;;;;;21.40;78.60;;;;;;5006908;28;19970;-81
2022/07/19 05:09:03;;;;;;;;;;;21.80;78.90;;;;;;5023496;28;19926;-80
2022/07/19 05:11:32;;;;;;;;;;;21.50;78.10;;;;;;5007117;28;19940;-83
2022/07/19 05:14:00;;;;;;;;;;;22.00;78.30;;;;;;5021073;28;19939;-80
2022/07/19 05:16:28;;;;;;;;;;;21.60;78.30;;;;;;5020379;28;20307;-81
2022/07/19 05:18:59;;;;;;;;;;;21.60;78.10;;;;;;4988246;28;20245;-81
2022/07/19 05:21:28;;;;;;;;;;;21.70;77.70;;;;;;4988056;28;19926;-82
2022/07/19 05:23:57;;;;;;;;;;;21.70;77.80;;;;;;5003015;28;19933;-80
2022/07/19 05:26:25;;;;;;;;;;;20.00;76.60;;;;;;4976195;28;19932;-81
2022/07/19 05:28:53;;;;;;;;;;;21.80;78.30;;;;;;4992718;28;19953;-80
2022/07/19 05:31:22;;;;;;;;;;;21.90;77.60;;;;;;4994375;28;19932;-83
2022/07/19 05:33:50;;;;;;;;;;;22.00;78.20;;;;;;5005864;28;19930;-81
2022/07/19 05:36:18;;;;;;;;;;;22.10;77.60;;;;;;4990132;28;20326;-81
2022/07/19 05:38:46;;;;;;;;;;;22.10;77.20;;;;;;4996353;28;19936;-81
2022/07/19 05:41:16;;;;;;;;;;;22.20;77.30;;;;;;4988789;28;19930;-81
2022/07/19 05:43:51;;;;;;;;;;;22.40;77.00;;;;;;4986850;28;19926;-81
2022/07/19 05:46:21;;;;;;;;;;;22.40;77.60;;;;;;5017103;28;19941;-80
2022/07/19 05:48:49;;;;;;;;;;;22.40;77.20;;;;;;4987698;28;19926;-81
2022/07/19 05:51:17;;;;;;;;;;;22.70;77.20;;;;;;4987079;28;19940;-81
2022/07/19 05:53:46;;;;;;;;;;;22.60;77.40;;;;;;4971901;28;19940;-81
2022/07/19 05:56:16;;;;;;;;;;;22.70;77.40;;;;;;5006610;28;19926;-81
2022/07/19 05:58:45;;;;;;;;;;;22.70;76.40;;;;;;4987363;28;19934;-81
2022/07/19 06:01:19;;;;;;;;;;;22.80;76.80;;;;;;4981535;28;19926;-81
2022/07/19 06:03:52;;;;;;;;;;;22.90;76.30;;;;;;4983618;28;19934;-80
2022/07/19 06:06:29;;;;;;;;;;;23.00;76.40;;;;;;5002059;28;19926;-81
2022/07/19 06:08:58;;;;;;;;;;;23.10;76.20;;;;;;4993446;28;19933;-81
2022/07/19 06:11:27;;;;;;;;;;;23.20;75.60;;;;;;5000030;28;19926;-81
2022/07/19 06:13:57;;;;;;;;;;;23.20;75.40;;;;;;4992396;28;20419;-84
2022/07/19 06:16:27;;;;;;;;;;;23.40;75.60;;;;;;5006499;28;19930;-81
2022/07/19 06:18:54;;;;;;;;;;;23.50;72.60;;;;;;5030621;28;19934;-81
2022/07/19 06:21:23;;;;;;;;;;;24.10;70.90;;;;;;5006695;28;19926;-81
2022/07/19 06:23:51;;;;;;;;;;;23.90;70.10;;;;;;5009255;28;19936;-81
2022/07/19 06:26:20;;;;;;;;;;;24.20;69.50;;;;;;5007436;28;19932;-82
2022/07/19 06:28:48;;;;;;;;;;;24.40;67.90;;;;;;4990785;28;19956;-83
2022/07/19 06:31:18;;;;;;;;;;;24.70;67.50;;;;;;5024084;28;19926;-83
2022/07/19 06:33:47;;;;;;;;;;;24.90;67.00;;;;;;5006712;28;19925;-80
2022/07/19 06:36:19;;;;;;;;;;;25.10;66.90;;;;;;5006309;28;19936;-83
2022/07/19 06:38:47;;;;;;;;;;;25.30;66.10;;;;;;5005111;28;19930;-79
2022/07/19 06:41:16;;;;;;;;;;;25.40;65.90;;;;;;5006039;28;19930;-79
2022/07/19 06:43:44;;;;;;;;;;;25.60;64.80;;;;;;4996333;28;19934;-83
2022/07/19 06:46:12;;;;;;;;;;;25.80;64.90;;;;;;5005418;28;19930;-82
2022/07/19 06:48:40;;;;;;;;;;;26.20;65.50;;;;;;4991531;28;19925;-82
2022/07/19 06:51:09;;;;;;;;;;;26.10;64.10;;;;;;4992175;28;20363;-82
2022/07/19 06:53:38;;;;;;;;;;;26.20;63.50;;;;;;5011836;28;20103;-82
2022/07/19 06:56:08;;;;;;;;;;;26.30;63.40;;;;;;5008451;28;19933;-82
2022/07/19 06:58:36;;;;;;;;;;;26.50;63.70;;;;;;5027738;28;19924;-82
2022/07/19 07:01:09;;;;;;;;;;;26.60;64.30;;;;;;5002678;28;19929;-82
2022/07/19 07:03:37;;;;;;;;;;;26.80;63.90;;;;;;5014873;28;19925;-82
2022/07/19 07:06:06;;;;;;;;;;;27.00;63.20;;;;;;5029873;28;19930;-83
2022/07/19 07:08:35;;;;;;;;;;;27.00;62.50;;;;;;5026764;28;19925;-83
2022/07/19 07:11:02;;;;;;;;;;;27.10;62.30;;;;;;4992927;28;19930;-82
2022/07/19 07:13:31;;;;;;;;;;;27.20;62.60;;;;;;4990244;28;19937;-84
2022/07/19 07:15:59;;;;;;;;;;;27.30;61.60;;;;;;4994900;28;19936;-83
2022/07/19 07:18:27;;;;;;;;;;;27.30;62.30;;;;;;5022646;28;19926;-83
2022/07/19 07:20:55;;;;;;;;;;;27.50;62.00;;;;;;4991634;28;19956;-82
2022/07/19 07:23:27;;;;;;;;;;;27.60;61.70;;;;;;5033649;28;19929;-81
2022/07/19 07:25:55;;;;;;;;;;;27.80;60.50;;;;;;5013483;28;19930;-80
2022/07/19 07:28:24;;;;;;;;;;;27.80;61.40;;;;;;4990394;28;19933;-81
2022/07/19 07:30:54;;;;;;;;;;;28.00;60.40;;;;;;5022537;28;19933;-81
2022/07/19 07:33:25;;;;;;;;;;;27.30;58.40;;;;;;5013848;28;19926;-82
2022/07/19 07:36:02;;;;;;;;;;;28.20;60.10;;;;;;4989947;28;19930;-85
2022/07/19 07:38:31;;;;;;;;;;;28.60;59.50;;;;;;5029372;28;19929;-83
2022/07/19 07:41:00;;;;;;;;;;;28.50;61.60;;;;;;4990591;28;19929;-82
2022/07/19 07:43:51;;;;;;;;;;;28.10;58.00;;;;;;4989611;28;19937;-83
2022/07/19 07:46:22;;;;;;;;;;;28.70;59.80;;;;;;5000731;28;19930;-82
2022/07/19 07:48:50;;;;;;;;;;;27.40;57.80;;;;;;5020309;28;20307;-83
2022/07/19 07:51:23;;;;;;;;;;;28.80;59.30;;;;;;4990528;28;19929;-82
2022/07/19 07:54:12;;;;;;;;;;;29.00;59.00;;;;;;4987693;28;19926;-82
2022/07/19 07:56:41;;;;;;;;;;;29.10;58.30;;;;;;5004839;28;19936;-82
2022/07/19 07:59:13;;;;;;;;;;;29.00;58.40;;;;;;5001673;28;20289;-80
2022/07/19 08:01:43;;;;;;;;;;;29.30;58.90;;;;;;5008452;28;19934;-80
2022/07/19 08:04:11;;;;;;;;;;;29.40;58.20;;;;;;4974283;28;20384;-81
2022/07/19 08:06:40;;;;;;;;;;;29.50;58.70;;;;;;4990004;28;19934;-82
2022/07/19 08:09:08;;;;;;;;;;;29.60;58.20;;;;;;4989843;28;19934;-82
2022/07/19 08:11:36;;;;;;;;;;;29.60;58.00;;;;;;5019329;28;19935;-82
2022/07/19 08:14:09;;;;;;;;;;;29.90;58.40;;;;;;5019248;28;20292;-81
2022/07/19 08:16:37;;;;;;;;;;;30.00;56.80;;;;;;4983121;28;20170;-81
2022/07/19 08:19:06;;;;;;;;;;;30.10;57.40;;;;;;5005224;28;19934;-80
2022/07/19 08:21:34;;;;;;;;;;;30.20;57.10;;;;;;5005540;28;19943;-80
2022/07/19 08:24:02;;;;;;;;;;;30.40;56.20;;;;;;4985170;28;19933;-81
2022/07/19 08:26:37;;;;;;;;;;;30.50;57.00;;;;;;4990752;28;19933;-81
2022/07/19 08:29:05;;;;;;;;;;;30.60;56.90;;;;;;5023530;28;19941;-81
2022/07/19 08:31:33;;;;;;;;;;;30.80;55.80;;;;;;4988294;28;20378;-81
2022/07/19 08:34:02;;;;;;;;;;;30.90;56.90;;;;;;5003211;28;19929;-80
2022/07/19 08:36:32;;;;;;;;;;;31.00;56.40;;;;;;5006743;28;19945;-81
2022/07/19 08:39:00;;;;;;;;;;;31.00;55.80;;;;;;4989626;28;19936;-81
2022/07/19 08:41:32;;;;;;;;;;;31.30;55.70;;;;;;5004604;28;19949;-84
2022/07/19 08:44:02;;;;;;;;;;;31.40;55.40;;;;;;5005154;28;19936;-81
2022/07/19 08:46:30;;;;;;;;;;;31.50;55.80;;;;;;5003436;28;19929;-82
2022/07/19 08:48:59;;;;;;;;;;;33.10;56.20;;;;;;5005988;28;19926;-81
2022/07/19 08:51:27;;;;;;;;;;;31.80;54.40;;;;;;5001185;28;19926;-81
2022/07/19 08:53:56;;;;;;;;;;;31.90;55.50;;;;;;4987552;28;19929;-83
2022/07/19 08:59:14;;;;;;;;;;;32.10;54.30;;;;;;5001296;28;19929;-82
2022/07/19 09:01:45;;;;;;;;;;;32.40;53.60;;;;;;5007965;28;19930;-82
2022/07/19 09:04:15;;;;;;;;;;;32.40;55.30;;;;;;5022099;28;19926;-82
2022/07/19 09:06:46;;;;;;;;;;;32.40;53.90;;;;;;5020209;28;19926;-81
2022/07/19 09:09:22;;;;;;;;;;;32.50;54.30;;;;;;5008067;28;19932;-82
2022/07/19 09:11:56;;;;;;;;;;;32.60;54.50;;;;;;5004813;28;19930;-81
2022/07/19 09:14:29;;;;;;;;;;;32.60;54.40;;;;;;4988333;28;20427;-84
2022/07/19 09:17:00;;;;;;;;;;;31.50;52.60;;;;;;5003907;28;19929;-80
2022/07/19 09:19:31;;;;;;;;;;;32.80;54.40;;;;;;5007665;28;19929;-81
2022/07/19 09:22:01;;;;;;;;;;;32.80;53.90;;;;;;4988361;28;19932;-81
2022/07/19 09:24:30;;;;;;;;;;;32.90;54.70;;;;;;5017870;28;19930;-80
2022/07/19 09:27:09;;;;;;;;;;;32.10;53.60;;;;;;4985314;28;19930;-80
2022/07/19 09:29:38;;;;;;;;;;;33.10;54.20;;;;;;5006150;28;20391;-79
2022/07/19 09:32:32;;;;;;;;;;;33.20;54.70;;;;;;5004910;28;19930;-82
2022/07/19 09:35:05;;;;;;;;;;;33.20;54.40;;;;;;4968645;28;19930;-82
2022/07/19 09:37:34;;;;;;;;;;;33.40;54.80;;;;;;5001603;28;19926;-80
2022/07/19 09:40:04;;;;;;;;;;;33.40;54.40;;;;;;5003895;28;19936;-82
2022/07/19 09:42:36;;;;;;;;;;;33.50;54.70;;;;;;5003419;28;19926;-83
2022/07/19 09:45:11;;;;;;;;;;;34.70;54.60;;;;;;5004043;28;20276;-82
2022/07/19 09:47:40;;;;;;;;;;;33.60;53.80;;;;;;5004230;28;19933;-81
2022/07/19 09:50:10;;;;;;;;;;;33.80;53.80;;;;;;5004572;28;19930;-82
2022/07/19 09:52:38;;;;;;;;;;;33.80;53.40;;;;;;4991766;28;19932;-81
2022/07/19 09:55:14;;;;;;;;;;;33.80;53.30;;;;;;5008139;28;19926;-80
2022/07/19 09:57:44;;;;;;;;;;;33.90;53.40;;;;;;5021053;28;19929;-81
2022/07/19 10:00:13;;;;;;;;;;;33.90;54.00;;;;;;5016967;28;19934;-81
2022/07/19 10:02:43;;;;;;;;;;;34.00;53.10;;;;;;5006591;28;19925;-81
2022/07/19 10:05:12;;;;;;;;;;;34.10;53.20;;;;;;4984157;28;19926;-80
2022/07/19 10:07:40;;;;;;;;;;;34.30;52.90;;;;;;5003399;28;19936;-80
2022/07/19 10:10:11;;;;;;;;;;;34.30;52.90;;;;;;5000423;28;19926;-82
2022/07/19 10:12:40;;;;;;;;;;;34.50;52.60;;;;;;4970283;28;20107;-84
2022/07/19 10:15:09;;;;;;;;;;;34.50;52.70;;;;;;4982002;28;19925;-81
2022/07/19 10:17:39;;;;;;;;;;;34.60;52.40;;;;;;5004198;28;19926;-82
2022/07/19 10:20:08;;;;;;;;;;;34.70;52.40;;;;;;5018859;28;19952;-80
2022/07/19 10:22:39;;;;;;;;;;;34.90;52.50;;;;;;4990654;28;19930;-81
2022/07/19 10:25:11;;;;;;;;;;;34.60;51.00;;;;;;5008291;28;19941;-80
2022/07/19 10:27:54;;;;;;;;;;;35.10;50.90;;;;;;4993728;28;19925;-81
2022/07/19 10:30:38;;;;;;;;;;;35.20;51.10;;;;;;5009027;28;19937;-81
2022/07/19 10:33:26;;;;;;;;;;;35.30;49.80;;;;;;4988662;28;19930;-81
2022/07/19 10:35:55;;;;;;;;;;;35.40;49.80;;;;;;4980656;28;19930;-80
2022/07/19 10:38:23;;;;;;;;;;;35.70;50.30;;;;;;5007709;28;19929;-82
2022/07/19 10:40:56;;;;;;;;;;;35.80;49.40;;;;;;4991203;28;19934;-80
2022/07/19 10:43:28;;;;;;;;;;;36.00;48.80;;;;;;5005813;28;19924;-92
2022/07/19 10:45:56;;;;;;;;;;;36.10;47.80;;;;;;5021882;28;20186;-81
2022/07/19 10:48:41;;;;;;;;;;;36.20;48.00;;;;;;4990929;28;19929;-81
2022/07/19 10:51:11;;;;;;;;;;;36.40;48.20;;;;;;5008002;28;19930;-80
2022/07/19 10:53:43;;;;;;;;;;;36.60;48.30;;;;;;5003592;28;19933;-82
2022/07/19 10:56:17;;;;;;;;;;;36.30;47.90;;;;;;4988504;28;19926;-80
2022/07/19 10:58:49;;;;;;;;;;;36.90;46.70;;;;;;5004297;28;19941;-81
2022/07/19 11:01:18;;;;;;;;;;;37.00;46.60;;;;;;5004203;28;21433;-81
2022/07/19 11:03:47;;;;;;;;;;;37.00;46.30;;;;;;5017815;28;19930;-80
2022/07/19 11:06:20;;;;;;;;;;;37.00;46.70;;;;;;5003279;28;20799;-80
2022/07/19 11:08:48;;;;;;;;;;;37.10;46.60;;;;;;5021244;28;20289;-81
2022/07/19 11:11:33;;;;;;;;;;;;;;;;;;;;;
2022/07/19 11:14:31;;;;;;;;;;;37.40;45.80;;;;;;5005920;28;19910;-85
2022/07/19 11:17:19;;;;;;;;;;;37.50;45.20;;;;;;4985685;28;19945;-82
2022/07/19 11:19:58;;;;;;;;;;;37.70;45.00;;;;;;5010787;28;19934;-81
2022/07/19 11:22:32;;;;;;;;;;;37.80;45.00;;;;;;4990864;28;20196;-82
2022/07/19 11:24:59;;;;;;;;;;;37.90;45.20;;;;;;4990676;28;19932;-81
2022/07/19 11:27:27;;;;;;;;;;;38.00;45.50;;;;;;5022013;28;19930;-80
2022/07/19 11:29:56;;;;;;;;;;;38.00;44.90;;;;;;4985084;28;20242;-84
2022/07/19 11:32:26;;;;;;;;;;;38.10;44.40;;;;;;4985434;28;20419;-81
2022/07/19 11:35:06;;;;;;;;;;;38.20;44.30;;;;;;4989322;28;20021;-80
2022/07/19 11:37:35;;;;;;;;;;;38.30;44.90;;;;;;4971943;28;19934;-81
2022/07/19 11:40:06;;;;;;;;;;;38.30;44.70;;;;;;4978196;28;19934;-79
2022/07/19 11:42:53;;;;;;;;;;;38.30;43.90;;;;;;4981212;28;19926;-79
2022/07/19 11:45:45;;;;;;;;;;;38.40;43.70;;;;;;4996487;28;19926;-79
2022/07/19 11:48:23;;;;;;;;;;;38.40;43.60;;;;;;4981204;28;19936;-79
2022/07/19 11:51:17;;;;;;;;;;;38.50;43.70;;;;;;4996722;28;19936;-79
2022/07/19 11:53:48;;;;;;;;;;;38.60;43.20;;;;;;4963488;28;21118;-80
2022/07/19 11:56:27;;;;;;;;;;;38.80;43.90;;;;;;4996384;28;19934;-79
2022/07/19 11:59:02;;;;;;;;;;;38.90;43.20;;;;;;4980287;28;19940;-79
2022/07/19 12:01:33;;;;;;;;;;;39.00;43.30;;;;;;4962744;28;19941;-80
2022/07/19 12:04:05;;;;;;;;;;;39.20;43.30;;;;;;4964126;28;19934;-82
2022/07/19 12:06:40;;;;;;;;;;;39.30;43.20;;;;;;4996041;28;19934;-79
2022/07/19 12:09:13;;;;;;;;;;;39.40;43.20;;;;;;4996967;28;19941;-80
2022/07/19 12:11:43;;;;;;;;;;;39.50;42.90;;;;;;5010369;28;19927;-79
2022/07/19 12:14:19;;;;;;;;;;;39.70;42.90;;;;;;4976935;28;19926;-79
2022/07/19 12:16:48;;;;;;;;;;;40.40;42.80;;;;;;4986110;28;19933;-79
2022/07/19 12:19:19;;;;;;;;;;;39.60;42.60;;;;;;4996992;28;19940;-79
2022/07/19 12:21:47;;;;;;;;;;;39.70;42.90;;;;;;4980328;28;19934;-80
2022/07/19 12:24:23;;;;;;;;;;;39.70;42.30;;;;;;5014419;28;19941;-80
2022/07/19 12:26:51;;;;;;;;;;;39.80;41.40;;;;;;4964917;28;19942;-80
2022/07/19 12:29:23;;;;;;;;;;;39.70;41.80;;;;;;5002107;28;19940;-81
2022/07/19 12:31:52;;;;;;;;;;;39.70;41.60;;;;;;5003039;28;19934;-79
2022/07/19 12:34:20;;;;;;;;;;;39.70;42.20;;;;;;5004736;28;19930;-79
2022/07/19 12:36:48;;;;;;;;;;;39.90;42.00;;;;;;5003762;28;19933;-79
2022/07/19 12:39:19;;;;;;;;;;;40.00;41.70;;;;;;5000820;28;19937;-79
2022/07/19 12:41:58;;;;;;;;;;;40.10;42.40;;;;;;5004663;28;19934;-80
2022/07/19 12:44:26;;;;;;;;;;;40.30;42.10;;;;;;5019391;28;19934;-80
2022/07/19 12:46:57;;;;;;;;;;;40.50;41.80;;;;;;5007673;28;19925;-81
2022/07/19 12:50:23;;;;;;;;;;;40.60;41.00;;;;;;5007423;28;19953;-80
2022/07/19 12:52:52;;;;;;;;;;;40.70;40.80;;;;;;5009722;28;19929;-80
2022/07/19 12:55:21;;;;;;;;;;;40.80;41.10;;;;;;5006364;28;19940;-79
2022/07/19 12:57:53;;;;;;;;;;;40.80;41.00;;;;;;4976502;28;20170;-81
2022/07/19 13:00:22;;;;;;;;;;;40.80;40.20;;;;;;5004227;28;19930;-79
2022/07/19 13:02:51;;;;;;;;;;;40.80;40.50;;;;;;5004760;28;19941;-79
2022/07/19 13:05:20;;;;;;;;;;;40.70;40.80;;;;;;5002333;28;19933;-79
2022/07/19 13:07:48;;;;;;;;;;;40.80;41.30;;;;;;4641276;28;10000248;-80
2022/07/19 13:10:17;;;;;;;;;;;41.00;41.50;;;;;;4989318;28;19947;-83
2022/07/19 13:12:46;;;;;;;;;;;41.10;41.90;;;;;;4988249;28;20001;-82
2022/07/19 13:15:16;;;;;;;;;;;41.10;41.90;;;;;;5010687;28;19926;-82
2022/07/19 13:17:45;;;;;;;;;;;41.10;42.60;;;;;;5001083;28;19926;-81
2022/07/19 13:20:13;;;;;;;;;;;41.10;41.50;;;;;;5003862;28;19930;-81
2022/07/19 13:22:41;;;;;;;;;;;41.10;42.00;;;;;;4987350;28;19930;-82
2022/07/19 13:25:13;;;;;;;;;;;41.10;42.30;;;;;;4998037;28;19937;-83
2022/07/19 13:28:03;;;;;;;;;;;41.10;41.90;;;;;;5005095;28;20339;-81
2022/07/19 13:30:31;;;;;;;;;;;41.10;41.70;;;;;;4986021;28;19926;-83
2022/07/19 13:32:59;;;;;;;;;;;41.10;42.10;;;;;;5001746;28;19925;-79
2022/07/19 13:35:30;;;;;;;;;;;41.20;42.00;;;;;;5000428;28;19940;-79
2022/07/19 13:37:59;;;;;;;;;;;41.30;42.30;;;;;;5001791;28;19941;-82
2022/07/19 13:40:27;;;;;;;;;;;41.40;41.60;;;;;;4995343;28;19929;-87
2022/07/19 13:43:23;;;;;;;;;;;41.40;41.60;;;;;;4974604;28;19934;-87
2022/07/19 13:47:43;;;;;;;;;;;;;;;;;;;;;
2022/07/19 13:51:30;;;;;;;;;;;41.50;41.30;;;;;;4934608;29;19942;-87
2022/07/19 14:05:33;;;;;;;;;;;40.40;39.10;;;;;;4967177;28;19945;-88
2022/07/19 14:13:20;;;;;;;;;;;;;;;;;;;;;
2022/07/19 14:16:26;;;;;;;;;;;;;;;;;;;;;
2022/07/19 14:19:18;;;;;;;;;;;43.90;40.70;;;;;;4985825;28;19926;-87
2022/07/19 14:22:54;;;;;;;;;;;;;;;;;;;;;
2022/07/19 14:28:47;;;;;;;;;;;44.50;41.70;;;;;;4986406;28;19933;-87
2022/07/19 14:32:19;;;;;;;;;;;44.70;40.30;;;;;;4905972;29;19939;-87
2022/07/19 14:35:26;;;;;;;;;;;44.50;40.50;;;;;;4976494;28;19929;-88
2022/07/19 14:38:17;;;;;;;;;;;44.60;39.60;;;;;;4971125;28;20173;-86
2022/07/19 14:41:01;;;;;;;;;;;44.80;39.60;;;;;;5006238;28;19937;-87
2022/07/19 14:43:42;;;;;;;;;;;44.10;39.90;;;;;;4990715;28;19932;-87
2022/07/19 14:47:43;;;;;;;;;;;44.70;39.60;;;;;;4987260;28;20512;-88
2022/07/19 14:50:39;;;;;;;;;;;45.00;39.60;;;;;;4949473;28;19934;-86
2022/07/19 14:54:05;;;;;;;;;;;45.00;40.20;;;;;;4897684;29;20588;-88
2022/07/19 14:57:36;;;;;;;;;;;;;;;;;;;;;
2022/07/19 15:00:52;;;;;;;;;;;46.20;41.30;;;;;;4934020;29;19934;-86
2022/07/19 15:04:18;;;;;;;;;;;;;;;;;;;;;
2022/07/19 15:10:50;;;;;;;;;;;46.30;39.10;;;;;;4999901;28;19938;-85
2022/07/19 15:13:21;;;;;;;;;;;46.30;38.90;;;;;;4989476;28;19937;-85
2022/07/19 15:16:20;;;;;;;;;;;47.70;40.70;;;;;;5025239;28;19925;-86
2022/07/19 15:19:20;;;;;;;;;;;46.50;39.40;;;;;;4987558;28;20025;-86
2022/07/19 15:22:46;;;;;;;;;;;46.50;39.30;;;;;;4993503;28;19934;-85
2022/07/19 15:25:39;;;;;;;;;;;46.50;38.60;;;;;;5010216;28;19926;-86